Time;durP1;ratioP1;P1;durP2;ratioP2;P2;SDS_P1;SDS_P2;PMS_P1;PMS_P2;Temp;Humidity;BMP_temperature;BMP_pressure;BME280_temperature;BME280_humidity;BME280_pressure;Samples;Min_cycle;Max_cycle;Signal;HPM_P1;HPM_P2
2023/07/03 00:02:06;;;;;;;18.17;9.93;;;20.80;99.90;;;;;;4973195;28;20161;-40
2023/07/03 00:04:36;;;;;;;20.00;9.20;;;20.80;99.90;;;;;;4972435;28;20074;-40
2023/07/03 00:07:03;;;;;;;16.23;9.50;;;20.80;99.90;;;;;;4972535;28;20030;-38
2023/07/03 00:09:29;;;;;;;15.32;9.27;;;20.80;99.90;;;;;;4975036;28;20027;-38
2023/07/03 00:11:54;;;;;;;16.95;10.40;;;20.80;99.90;;;;;;4979132;28;20054;-36
2023/07/03 00:14:20;;;;;;;16.92;9.73;;;20.80;99.90;;;;;;4978874;28;20121;-38
2023/07/03 00:16:46;;;;;;;16.42;10.05;;;20.80;99.90;;;;;;4979919;28;20065;-39
2023/07/03 00:19:13;;;;;;;13.95;9.52;;;20.80;99.90;;;;;;4979236;28;20473;-38
2023/07/03 00:21:43;;;;;;;15.32;9.43;;;20.80;99.90;;;;;;4980274;28;20122;-36
2023/07/03 00:24:13;;;;;;;17.25;10.27;;;20.80;99.90;;;;;;4978813;28;20478;-38
2023/07/03 00:26:39;;;;;;;15.15;9.63;;;20.80;99.90;;;;;;4978598;28;20030;-39
2023/07/03 00:29:05;;;;;;;13.90;9.57;;;20.80;99.90;;;;;;4978758;28;20051;-38
2023/07/03 00:31:30;;;;;;;13.52;8.90;;;20.80;99.90;;;;;;4979222;28;20150;-38
2023/07/03 00:33:58;;;;;;;16.80;9.95;;;20.80;99.90;;;;;;4978449;28;20102;-36
2023/07/03 00:36:24;;;;;;;14.00;8.93;;;20.80;99.90;;;;;;4978759;28;20030;-38
2023/07/03 00:38:49;;;;;;;13.82;9.23;;;20.80;99.90;;;;;;4978834;28;20037;-37
2023/07/03 00:41:15;;;;;;;16.67;9.85;;;20.80;99.90;;;;;;4978872;28;20034;-37
2023/07/03 00:43:42;;;;;;;13.30;8.60;;;20.80;99.90;;;;;;4978546;28;20026;-39
2023/07/03 00:46:12;;;;;;;15.23;8.95;;;20.80;99.90;;;;;;4979436;28;20027;-38
2023/07/03 00:48:40;;;;;;;16.23;10.23;;;20.70;99.90;;;;;;4978405;28;20030;-36
2023/07/03 00:51:06;;;;;;;17.23;10.38;;;20.70;99.90;;;;;;4978571;28;20390;-38
2023/07/03 00:53:32;;;;;;;17.15;10.38;;;20.80;99.90;;;;;;4978432;28;20023;-39
2023/07/03 00:55:57;;;;;;;17.17;9.32;;;20.80;99.90;;;;;;4994186;28;20410;-38
2023/07/03 00:58:23;;;;;;;13.18;8.88;;;20.80;99.90;;;;;;4979914;28;20027;-39
2023/07/03 01:01:15;;;;;;;19.58;9.55;;;20.70;99.90;;;;;;4978240;28;20608;-38
2023/07/03 01:03:47;;;;;;;16.98;10.07;;;20.70;99.90;;;;;;4978332;28;20038;-39
2023/07/03 01:06:19;;;;;;;13.90;9.68;;;20.80;99.90;;;;;;4978428;28;20517;-38
2023/07/03 01:08:49;;;;;;;14.80;9.45;;;20.70;99.90;;;;;;4978333;28;20494;-39
2023/07/03 01:11:18;;;;;;;15.60;10.10;;;20.80;99.90;;;;;;4979382;28;20031;-37
2023/07/03 01:13:46;;;;;;;13.20;8.73;;;20.80;99.90;;;;;;4978150;28;20031;-37
2023/07/03 01:16:12;;;;;;;15.27;8.93;;;20.70;99.90;;;;;;4979567;28;20029;-37
2023/07/03 01:18:39;;;;;;;18.10;9.20;;;20.70;99.90;;;;;;4978287;28;20031;-38
2023/07/03 01:21:19;;;;;;;14.07;9.50;;;20.80;99.90;;;;;;4976029;28;20065;-38
2023/07/03 01:23:53;;;;;;;18.70;10.02;;;20.70;99.90;;;;;;4976005;28;20026;-36
2023/07/03 01:26:21;;;;;;;15.27;9.57;;;20.80;99.90;;;;;;4976696;28;20090;-36
2023/07/03 01:28:53;;;;;;;15.48;10.20;;;20.80;99.90;;;;;;4975037;28;20476;-38
2023/07/03 01:31:20;;;;;;;13.85;9.48;;;20.70;99.90;;;;;;4975730;28;20026;-39
2023/07/03 01:33:46;;;;;;;15.25;9.38;;;20.70;99.90;;;;;;4975312;28;20419;-37
2023/07/03 01:36:12;;;;;;;13.68;9.52;;;20.70;99.90;;;;;;4975071;28;20034;-39
2023/07/03 01:38:44;;;;;;;14.60;9.52;;;20.70;99.90;;;;;;4974851;28;20030;-38
2023/07/03 01:41:13;;;;;;;16.23;8.52;;;20.80;99.90;;;;;;4975601;28;20027;-38
2023/07/03 01:43:40;;;;;;;16.02;10.15;;;20.70;99.90;;;;;;4974762;28;20035;-38
2023/07/03 01:46:07;;;;;;;14.00;9.10;;;20.80;99.90;;;;;;4974733;28;20027;-37
2023/07/03 01:48:34;;;;;;;16.27;9.38;;;20.70;99.90;;;;;;4975105;28;20023;-38
2023/07/03 01:51:01;;;;;;;15.70;9.02;;;20.70;99.90;;;;;;4974424;28;20483;-38
2023/07/03 01:53:32;;;;;;;16.13;9.07;;;20.70;99.90;;;;;;4974631;28;20027;-38
2023/07/03 01:56:03;;;;;;;17.20;10.00;;;20.70;99.90;;;;;;4974633;28;20023;-37
2023/07/03 01:58:41;;;;;;;12.75;9.30;;;20.70;99.90;;;;;;4976102;28;20019;-38
2023/07/03 02:01:10;;;;;;;15.00;8.77;;;20.70;99.90;;;;;;4975874;28;20109;-39
2023/07/03 02:03:47;;;;;;;16.33;9.45;;;20.70;99.90;;;;;;4974326;28;20027;-38
2023/07/03 02:06:21;;;;;;;13.18;8.52;;;20.80;99.90;;;;;;4974716;28;20176;-36
2023/07/03 02:08:51;;;;;;;;;;;20.80;99.90;;;;;;4974824;28;20019;-37
2023/07/03 02:11:19;;;;;;;15.70;9.77;;;20.70;99.90;;;;;;4974669;28;19913;-37
2023/07/03 02:13:45;;;;;;;14.38;8.95;;;20.70;99.90;;;;;;4974294;28;20034;-38
2023/07/03 02:16:11;;;;;;;14.98;9.30;;;20.80;99.90;;;;;;4974750;28;20201;-41
2023/07/03 02:18:37;;;;;;;15.70;8.80;;;20.70;99.90;;;;;;4974215;28;20027;-38
2023/07/03 02:21:05;;;;;;;11.52;8.43;;;20.70;99.90;;;;;;4974019;28;20111;-39
2023/07/03 02:23:31;;;;;;;18.08;9.75;;;20.70;99.90;;;;;;4974117;28;20023;-38
2023/07/03 02:25:57;;;;;;;16.48;9.90;;;20.70;99.90;;;;;;4974030;28;20065;-36
2023/07/03 02:28:23;;;;;;;16.30;9.43;;;20.70;99.90;;;;;;4974186;28;20054;-39
2023/07/03 02:30:49;;;;;;;14.27;9.13;;;20.70;99.90;;;;;;4973650;28;20372;-37
2023/07/03 02:33:14;;;;;;;15.13;8.90;;;20.70;99.90;;;;;;4973919;28;20558;-38
2023/07/03 02:35:41;;;;;;;14.38;8.90;;;20.80;99.90;;;;;;4974726;28;20482;-38
2023/07/03 02:38:08;;;;;;;13.85;8.73;;;20.70;99.90;;;;;;4974875;28;20030;-38
2023/07/03 02:40:34;;;;;;;14.70;9.73;;;20.70;99.90;;;;;;4973612;28;20022;-38
2023/07/03 02:43:00;;;;;;;11.52;7.68;;;20.70;99.90;;;;;;4973773;28;20027;-38
2023/07/03 02:45:26;;;;;;;11.65;8.50;;;20.70;99.90;;;;;;4975359;28;20126;-38
2023/07/03 02:47:51;;;;;;;15.82;9.65;;;20.70;99.90;;;;;;4974187;28;20023;-38
2023/07/03 02:50:17;;;;;;;15.02;9.30;;;20.70;99.90;;;;;;4974577;28;20019;-37
2023/07/03 02:52:43;;;;;;;14.07;9.02;;;20.70;99.90;;;;;;4973967;28;20098;-38
2023/07/03 02:55:08;;;;;;;15.60;9.10;;;20.70;99.90;;;;;;4973501;28;20117;-38
2023/07/03 02:57:34;;;;;;;12.48;8.70;;;20.70;99.90;;;;;;4973825;28;20031;-38
2023/07/03 03:00:00;;;;;;;14.95;8.93;;;20.70;99.90;;;;;;4973184;28;20102;-38
2023/07/03 03:02:26;;;;;;;13.77;8.50;;;20.80;99.90;;;;;;4973440;28;20532;-39
2023/07/03 03:04:52;;;;;;;13.70;8.85;;;20.70;99.90;;;;;;4973368;28;20490;-38
2023/07/03 03:07:17;;;;;;;13.15;8.90;;;20.70;99.90;;;;;;4973292;28;20058;-38
2023/07/03 03:09:43;;;;;;;13.90;9.07;;;20.70;99.90;;;;;;4973998;28;20102;-37
2023/07/03 03:12:09;;;;;;;11.23;8.30;;;20.70;99.90;;;;;;4973576;28;20022;-38
2023/07/03 03:14:34;;;;;;;14.23;8.60;;;20.70;99.90;;;;;;4973070;28;20045;-37
2023/07/03 03:17:00;;;;;;;14.15;8.95;;;20.70;99.90;;;;;;4973165;28;20045;-39
2023/07/03 03:19:26;;;;;;;16.50;9.27;;;20.70;99.90;;;;;;4972929;28;20030;-40
2023/07/03 03:21:51;;;;;;;12.82;8.65;;;20.70;99.90;;;;;;4973088;28;20069;-38
2023/07/03 03:24:17;;;;;;;14.75;8.75;;;20.70;99.90;;;;;;4972968;28;20022;-38
2023/07/03 03:26:43;;;;;;;14.80;9.10;;;20.70;99.90;;;;;;4973983;28;20069;-40
2023/07/03 03:29:09;;;;;;;13.93;8.50;;;20.70;99.90;;;;;;4972709;28;20047;-38
2023/07/03 03:31:34;;;;;;;13.55;8.55;;;20.70;99.90;;;;;;4972893;28;20497;-37
2023/07/03 03:34:00;;;;;;;11.73;8.00;;;20.70;99.90;;;;;;4972952;28;20029;-38
2023/07/03 03:36:26;;;;;;;11.82;8.68;;;20.70;99.90;;;;;;4972914;28;20027;-38
2023/07/03 03:38:51;;;;;;;13.43;9.15;;;20.70;99.90;;;;;;4973675;28;20026;-38
2023/07/03 03:41:17;;;;;;;14.45;8.52;;;20.70;99.90;;;;;;4973240;28;20507;-38
2023/07/03 03:43:45;;;;;;;12.35;7.93;;;20.70;99.90;;;;;;4972221;28;20075;-38
2023/07/03 03:46:10;;;;;;;12.93;8.75;;;20.70;99.90;;;;;;4973089;28;20027;-38
2023/07/03 03:48:36;;;;;;;14.20;8.88;;;20.70;99.90;;;;;;4973120;28;20027;-37
2023/07/03 03:51:02;;;;;;;13.15;8.40;;;20.70;99.90;;;;;;4972462;28;20030;-37
2023/07/03 03:53:28;;;;;;;13.88;9.00;;;20.70;99.90;;;;;;4972636;28;20022;-39
2023/07/03 03:55:54;;;;;;;13.27;8.38;;;20.60;99.90;;;;;;4971652;28;20038;-38
2023/07/03 03:58:20;;;;;;;13.80;8.80;;;20.70;99.90;;;;;;4973304;28;20363;-38
2023/07/03 04:00:46;;;;;;;13.82;8.57;;;20.70;99.90;;;;;;4972227;28;20192;-38
2023/07/03 04:03:13;;;;;;;12.32;8.00;;;20.60;99.90;;;;;;4973656;28;20030;-37
2023/07/03 04:05:41;;;;;;;15.93;9.43;;;20.60;99.90;;;;;;4972414;28;20023;-38
2023/07/03 04:08:07;;;;;;;12.82;7.82;;;20.70;99.90;;;;;;4972385;28;20478;-38
2023/07/03 04:10:32;;;;;;;14.32;8.80;;;20.60;99.90;;;;;;4972999;28;20069;-38
2023/07/03 04:12:58;;;;;;;14.80;8.98;;;20.70;99.90;;;;;;4972504;28;20022;-38
2023/07/03 04:15:24;;;;;;;13.25;8.55;;;20.70;99.90;;;;;;4972314;28;20061;-39
2023/07/03 04:17:51;;;;;;;12.77;8.45;;;20.70;99.90;;;;;;4972867;28;20061;-37
2023/07/03 04:20:17;;;;;;;13.23;8.32;;;20.60;99.90;;;;;;4972323;28;20150;-40
2023/07/03 04:22:44;;;;;;;14.93;8.88;;;20.60;99.90;;;;;;4972873;28;20027;-39
2023/07/03 04:25:10;;;;;;;15.93;8.90;;;20.60;99.90;;;;;;4972315;28;20501;-36
2023/07/03 04:27:36;;;;;;;15.20;9.07;;;20.60;99.90;;;;;;4972299;28;20030;-39
2023/07/03 04:30:04;;;;;;;13.95;8.63;;;20.60;99.90;;;;;;4973130;28;20090;-39
2023/07/03 04:32:30;;;;;;;17.08;9.02;;;20.60;99.90;;;;;;4972287;28;20030;-38
2023/07/03 04:34:57;;;;;;;16.67;9.15;;;20.60;99.90;;;;;;4972423;28;20341;-38
2023/07/03 04:37:26;;;;;;;15.90;8.68;;;20.60;99.90;;;;;;4972606;28;20501;-39
2023/07/03 04:39:55;;;;;;;21.42;9.18;;;20.60;99.90;;;;;;4972176;28;20475;-38
2023/07/03 04:42:20;;;;;;;17.45;8.52;;;20.60;99.90;;;;;;4972202;28;20034;-36
2023/07/03 04:44:48;;;;;;;20.50;9.60;;;20.60;99.90;;;;;;4972372;28;20037;-38
2023/07/03 04:47:16;;;;;;;20.05;9.55;;;20.60;98.80;;;;;;4972027;28;20023;-40
2023/07/03 04:49:45;;;;;;;23.77;9.70;;;20.10;98.50;;;;;;4972076;28;20106;-39
2023/07/03 04:52:16;;;;;;;19.50;10.30;;;20.00;99.00;;;;;;4972512;28;20041;-40
2023/07/03 04:54:42;;;;;;;20.40;9.90;;;20.00;99.20;;;;;;4973624;28;20534;-38
2023/07/03 04:57:07;;;;;;;23.23;10.98;;;20.00;99.20;;;;;;4975652;28;20050;-40
2023/07/03 04:59:35;;;;;;;21.88;9.85;;;20.10;99.40;;;;;;4975495;28;20030;-40
2023/07/03 05:02:01;;;;;;;25.05;10.10;;;20.10;99.50;;;;;;4976466;28;20460;-40
2023/07/03 05:04:27;;;;;;;22.05;10.90;;;20.20;99.60;;;;;;4975510;28;20463;-40
2023/07/03 05:06:53;;;;;;;18.65;10.27;;;20.20;99.70;;;;;;4975712;28;20073;-39
2023/07/03 05:09:19;;;;;;;20.92;10.13;;;20.30;99.80;;;;;;4991591;28;20023;-40
2023/07/03 05:11:48;;;;;;;22.63;10.30;;;20.30;99.90;;;;;;4975957;28;20030;-39
2023/07/03 05:14:14;;;;;;;20.02;10.23;;;20.40;99.90;;;;;;4975573;28;20030;-39
2023/07/03 05:16:40;;;;;;;19.40;9.57;;;20.40;99.90;;;;;;4975637;28;20026;-39
2023/07/03 05:19:05;;;;;;;21.05;9.50;;;20.40;99.90;;;;;;4976088;28;20023;-38
2023/07/03 05:21:31;;;;;;;20.80;10.00;;;20.40;99.90;;;;;;4975219;28;20457;-38
2023/07/03 05:23:57;;;;;;;17.33;9.57;;;20.40;99.90;;;;;;4975175;28;20124;-39
2023/07/03 05:26:24;;;;;;;19.38;9.30;;;20.40;99.90;;;;;;4975138;28;20030;-39
2023/07/03 05:28:50;;;;;;;22.80;10.15;;;20.40;99.90;;;;;;4975025;28;20443;-38
2023/07/03 05:31:15;;;;;;;20.77;9.45;;;20.50;99.90;;;;;;4975095;28;20069;-38
2023/07/03 05:33:41;;;;;;;20.63;10.35;;;20.50;99.90;;;;;;4975002;28;20019;-39
2023/07/03 05:36:06;;;;;;;17.10;8.90;;;20.50;99.90;;;;;;4974928;28;20037;-39
2023/07/03 05:38:33;;;;;;;14.73;8.52;;;20.50;99.90;;;;;;4975529;28;20090;-39
2023/07/03 05:40:59;;;;;;;17.55;9.38;;;20.50;99.90;;;;;;4975123;28;20026;-38
2023/07/03 05:43:26;;;;;;;17.27;8.98;;;20.50;99.90;;;;;;4975097;28;20490;-39
2023/07/03 05:45:52;;;;;;;20.45;9.10;;;20.50;99.90;;;;;;4974809;28;20019;-39
2023/07/03 05:48:18;;;;;;;17.95;9.02;;;20.50;99.90;;;;;;4974827;28;20077;-38
2023/07/03 05:50:44;;;;;;;25.42;9.20;;;20.50;99.90;;;;;;4974485;28;20037;-40
2023/07/03 05:53:10;;;;;;;20.70;9.50;;;20.50;99.90;;;;;;4975556;28;20067;-39
2023/07/03 05:55:35;;;;;;;18.27;9.23;;;20.50;99.90;;;;;;4975230;28;20163;-40
2023/07/03 05:58:02;;;;;;;19.25;9.57;;;20.50;99.90;;;;;;4974964;28;20027;-40
2023/07/03 06:00:30;;;;;;;19.40;10.07;;;20.50;99.90;;;;;;4974420;28;20053;-38
2023/07/03 06:02:56;;;;;;;15.98;9.18;;;20.50;99.90;;;;;;4974565;28;20125;-39
2023/07/03 06:05:22;;;;;;;17.77;9.70;;;20.50;99.90;;;;;;4974278;28;20027;-38
2023/07/03 06:07:48;;;;;;;17.98;9.35;;;20.50;99.90;;;;;;4974657;28;20031;-39
2023/07/03 06:10:14;;;;;;;19.02;9.38;;;20.60;99.90;;;;;;4974658;28;20030;-39
2023/07/03 06:12:41;;;;;;;20.80;9.10;;;20.60;99.90;;;;;;4974284;28;20027;-39
2023/07/03 06:15:07;;;;;;;14.10;8.40;;;20.50;99.90;;;;;;4974288;28;20030;-40
2023/07/03 06:17:33;;;;;;;17.15;9.32;;;20.60;99.90;;;;;;4974402;28;20486;-36
2023/07/03 06:19:59;;;;;;;16.23;8.48;;;20.60;99.90;;;;;;4974008;28;20101;-38
2023/07/03 06:22:24;;;;;;;16.13;8.93;;;20.60;99.90;;;;;;4975546;28;20026;-38
2023/07/03 06:24:50;;;;;;;16.67;8.63;;;20.50;99.90;;;;;;4974238;28;20026;-39
2023/07/03 06:27:16;;;;;;;15.88;8.93;;;20.60;99.90;;;;;;4974874;28;20074;-39
2023/07/03 06:29:42;;;;;;;13.88;8.38;;;20.60;99.90;;;;;;4974056;28;20649;-37
2023/07/03 06:32:10;;;;;;;14.18;8.25;;;20.60;99.90;;;;;;4974340;28;20242;-38
2023/07/03 06:34:35;;;;;;;14.60;8.73;;;20.60;99.90;;;;;;4974922;28;20101;-39
2023/07/03 06:37:02;;;;;;;17.08;8.75;;;20.60;99.90;;;;;;4973989;28;20547;-38
2023/07/03 06:39:28;;;;;;;13.52;7.72;;;20.60;99.90;;;;;;4973666;28;20402;-38
2023/07/03 06:41:54;;;;;;;15.07;8.80;;;20.60;99.90;;;;;;4974281;28;20041;-39
2023/07/03 06:44:20;;;;;;;15.07;8.68;;;20.60;99.90;;;;;;4974072;28;20031;-37
2023/07/03 06:46:46;;;;;;;16.67;8.15;;;20.60;99.90;;;;;;4973642;28;20034;-39
2023/07/03 06:49:13;;;;;;;14.93;8.15;;;20.60;99.90;;;;;;4973457;28;20035;-38
2023/07/03 06:51:40;;;;;;;15.60;8.35;;;20.60;99.90;;;;;;4973846;28;20023;-39
2023/07/03 06:54:05;;;;;;;14.98;8.75;;;20.60;99.90;;;;;;4974041;28;20023;-39
2023/07/03 06:56:31;;;;;;;15.65;9.10;;;20.60;99.90;;;;;;4974346;28;20042;-38
2023/07/03 06:58:57;;;;;;;16.65;8.02;;;20.60;99.90;;;;;;4973717;28;20325;-38
2023/07/03 07:01:24;;;;;;;16.75;8.23;;;20.60;99.80;;;;;;4973315;28;20121;-38
2023/07/03 07:03:50;;;;;;;20.20;8.35;;;20.50;99.80;;;;;;4973305;28;20214;-39
2023/07/03 07:06:24;;;;;;;22.90;8.63;;;20.50;99.90;;;;;;4973338;28;20147;-38
2023/07/03 07:08:51;;;;;;;;;;;20.50;99.90;;;;;;4973669;28;20113;-39
2023/07/03 07:11:22;;;;;;;19.90;8.40;;;20.50;99.90;;;;;;4973225;28;19906;-39
2023/07/03 07:13:50;;;;;;;19.58;8.60;;;20.60;99.90;;;;;;4973194;28;20085;-39
2023/07/03 07:16:21;;;;;;;19.50;8.73;;;20.60;99.90;;;;;;4973226;28;20058;-38
2023/07/03 07:18:50;;;;;;;16.27;8.43;;;20.50;99.90;;;;;;4972610;28;20033;-39
2023/07/03 07:21:15;;;;;;;15.40;8.02;;;20.50;99.90;;;;;;4973060;28;20073;-39
2023/07/03 07:23:41;;;;;;;14.02;7.75;;;20.60;99.90;;;;;;4974304;28;20046;-40
2023/07/03 07:26:06;;;;;;;17.63;8.60;;;20.60;99.90;;;;;;4973014;28;20031;-39
2023/07/03 07:28:32;;;;;;;16.38;8.23;;;20.60;99.90;;;;;;4973017;28;20025;-39
2023/07/03 07:30:58;;;;;;;14.93;7.47;;;20.60;99.90;;;;;;4988459;28;20031;-36
2023/07/03 07:33:24;;;;;;;13.15;7.30;;;20.60;99.90;;;;;;4973462;28;20031;-39
2023/07/03 07:35:51;;;;;;;16.17;7.88;;;20.60;99.90;;;;;;4973490;28;20027;-38
2023/07/03 07:38:21;;;;;;;14.85;7.97;;;20.60;99.90;;;;;;4973124;28;20090;-38
2023/07/03 07:40:48;;;;;;;15.27;7.70;;;20.60;99.90;;;;;;4973097;28;20038;-40
2023/07/03 07:43:14;;;;;;;13.73;7.60;;;20.60;99.90;;;;;;4973098;28;20026;-37
2023/07/03 07:45:40;;;;;;;13.88;7.35;;;20.60;99.90;;;;;;4972676;28;20062;-39
2023/07/03 07:48:06;;;;;;;11.73;7.00;;;20.60;99.90;;;;;;4972922;28;20435;-38
2023/07/03 07:50:38;;;;;;;12.68;7.40;;;20.60;99.90;;;;;;4972682;28;20027;-40
2023/07/03 07:53:03;;;;;;;16.23;7.50;;;20.60;99.90;;;;;;4972854;28;20058;-38
2023/07/03 07:55:29;;;;;;;16.05;7.50;;;20.60;99.90;;;;;;4973269;28;20076;-40
2023/07/03 07:57:54;;;;;;;12.63;7.30;;;20.60;99.90;;;;;;4972490;28;20034;-38
2023/07/03 08:00:21;;;;;;;14.02;7.35;;;20.60;99.90;;;;;;4972358;28;20050;-38
2023/07/03 08:02:46;;;;;;;12.50;6.65;;;20.60;99.90;;;;;;4972795;28;20031;-39
2023/07/03 08:05:12;;;;;;;14.57;7.18;;;20.60;99.90;;;;;;4971640;28;20053;-39
2023/07/03 08:07:38;;;;;;;14.85;7.35;;;20.60;99.90;;;;;;4973069;28;20474;-41
2023/07/03 08:10:04;;;;;;;13.23;7.55;;;20.60;99.90;;;;;;4972573;28;20485;-39
2023/07/03 08:12:30;;;;;;;11.18;6.47;;;20.60;99.90;;;;;;4987289;28;20034;-37
2023/07/03 08:14:56;;;;;;;14.85;7.35;;;20.60;99.90;;;;;;4974762;28;20023;-39
2023/07/03 08:17:21;;;;;;;12.20;7.22;;;20.70;99.90;;;;;;4973249;28;20085;-39
2023/07/03 08:19:47;;;;;;;11.10;6.38;;;20.70;99.90;;;;;;4972506;28;20031;-39
2023/07/03 08:22:12;;;;;;;14.43;7.15;;;20.60;99.90;;;;;;4973371;28;20077;-37
2023/07/03 08:24:38;;;;;;;14.48;7.50;;;20.60;99.90;;;;;;4972433;28;20023;-39
2023/07/03 08:27:04;;;;;;;11.93;6.88;;;20.60;99.90;;;;;;4972333;28;20031;-37
2023/07/03 08:29:30;;;;;;;13.82;6.95;;;20.60;99.90;;;;;;4972720;28;20031;-40
2023/07/03 08:31:55;;;;;;;10.55;6.30;;;20.60;99.90;;;;;;4975634;28;20029;-38
2023/07/03 08:34:21;;;;;;;13.30;7.40;;;20.70;99.90;;;;;;4976153;28;20029;-36
2023/07/03 08:36:46;;;;;;;13.07;7.07;;;20.70;99.90;;;;;;4976172;28;20054;-36
2023/07/03 08:39:12;;;;;;;11.25;6.63;;;20.70;99.90;;;;;;4975888;28;20023;-42
2023/07/03 08:41:47;;;;;;;12.68;6.43;;;20.70;99.90;;;;;;4975971;28;20086;-40
2023/07/03 08:44:13;;;;;;;11.48;6.63;;;20.70;99.90;;;;;;4975969;28;20034;-40
2023/07/03 08:46:40;;;;;;;11.68;6.45;;;20.70;99.90;;;;;;4976403;28;20027;-38
2023/07/03 08:49:09;;;;;;;11.15;6.43;;;20.70;99.90;;;;;;4975980;28;20026;-40
2023/07/03 08:51:38;;;;;;;15.40;6.97;;;20.70;99.90;;;;;;4976160;28;20042;-37
2023/07/03 08:54:11;;;;;;;13.82;7.47;;;20.70;99.90;;;;;;4975624;28;20042;-37
2023/07/03 08:56:37;;;;;;;11.13;6.60;;;20.70;99.90;;;;;;4975853;28;20494;-38
2023/07/03 08:59:04;;;;;;;13.43;6.20;;;20.70;99.90;;;;;;4976226;28;20019;-38
2023/07/03 09:01:41;;;;;;;12.02;6.53;;;20.70;99.90;;;;;;4975702;28;20061;-40
2023/07/03 09:04:37;;;;;;;11.52;6.30;;;20.70;99.90;;;;;;4976124;28;20023;-39
2023/07/03 09:07:09;;;;;;;13.88;6.88;;;20.70;99.90;;;;;;4975961;28;20081;-39
2023/07/03 09:09:49;;;;;;;10.40;5.80;;;20.70;99.90;;;;;;4975386;28;20434;-39
2023/07/03 09:12:42;;;;;;;10.75;6.25;;;20.70;99.90;;;;;;4975666;28;20553;-39
2023/07/03 09:15:21;;;;;;;12.38;6.63;;;20.70;99.90;;;;;;4976565;28;20027;-40
2023/07/03 09:17:48;;;;;;;17.15;7.32;;;20.70;99.90;;;;;;4975870;28;20033;-39
2023/07/03 09:20:15;;;;;;;11.80;6.22;;;20.70;99.90;;;;;;4975351;28;20550;-38
2023/07/03 09:22:56;;;;;;;11.43;6.07;;;20.70;99.90;;;;;;4975336;28;20072;-39
2023/07/03 09:25:28;;;;;;;10.45;5.88;;;20.70;99.90;;;;;;4975921;28;20031;-37
2023/07/03 09:27:55;;;;;;;11.63;6.38;;;20.70;99.90;;;;;;4975299;28;20055;-37
2023/07/03 09:30:21;;;;;;;11.82;6.50;;;20.70;99.90;;;;;;4975085;28;20113;-38
2023/07/03 09:32:47;;;;;;;9.27;6.05;;;20.70;99.90;;;;;;4975513;28;20103;-38
2023/07/03 09:35:17;;;;;;;11.52;6.40;;;20.80;99.90;;;;;;4975394;28;20525;-38
2023/07/03 09:37:50;;;;;;;8.70;5.60;;;20.70;99.90;;;;;;4975771;28;20050;-37
2023/07/03 09:40:23;;;;;;;11.55;5.93;;;20.70;99.90;;;;;;4975307;28;20437;-40
2023/07/03 09:42:49;;;;;;;11.43;5.97;;;20.80;99.90;;;;;;4974466;28;20023;-38
2023/07/03 09:45:19;;;;;;;11.32;6.00;;;20.70;99.90;;;;;;4974804;28;20037;-39
2023/07/03 09:47:55;;;;;;;11.15;6.10;;;20.70;99.90;;;;;;4974838;28;20061;-37
2023/07/03 09:50:36;;;;;;;9.70;5.60;;;20.70;99.90;;;;;;4975064;28;20030;-40
2023/07/03 09:53:03;;;;;;;9.88;5.55;;;20.70;99.90;;;;;;4974764;28;20051;-36
2023/07/03 09:55:29;;;;;;;10.95;5.97;;;20.70;99.90;;;;;;4975020;28;20038;-39
2023/07/03 09:57:55;;;;;;;11.65;5.50;;;20.70;99.90;;;;;;4974727;28;20583;-37
2023/07/03 10:00:24;;;;;;;10.80;6.18;;;20.80;99.90;;;;;;4974677;28;20106;-38
2023/07/03 10:02:56;;;;;;;9.63;5.47;;;20.70;99.90;;;;;;4974999;28;20035;-39
2023/07/03 10:05:32;;;;;;;10.25;5.65;;;20.80;99.90;;;;;;4975610;28;20023;-38
2023/07/03 10:08:08;;;;;;;9.25;5.85;;;20.80;99.90;;;;;;4974555;28;20406;-36
2023/07/03 10:10:34;;;;;;;12.68;5.93;;;20.80;99.90;;;;;;4974386;28;20019;-36
2023/07/03 10:13:30;;;;;;;9.23;5.88;;;20.80;99.80;;;;;;4975552;28;20026;-39
2023/07/03 10:15:57;;;;;;;11.10;5.78;;;20.80;99.80;;;;;;4989388;28;20556;-41
2023/07/03 10:18:27;;;;;;;9.80;5.53;;;20.80;99.90;;;;;;4975346;28;20046;-39
2023/07/03 10:20:53;;;;;;;10.13;5.30;;;20.80;99.80;;;;;;4974139;28;20064;-36
2023/07/03 10:23:26;;;;;;;9.63;5.65;;;20.80;99.80;;;;;;4974864;28;20035;-38
2023/07/03 10:26:13;;;;;;;10.98;5.78;;;20.80;99.80;;;;;;4975058;28;20030;-41
2023/07/03 10:28:45;;;;;;;10.77;5.22;;;20.80;99.80;;;;;;4974127;28;20037;-39
2023/07/03 10:31:40;;;;;;;10.15;5.47;;;20.80;99.80;;;;;;4975346;28;20026;-37
2023/07/03 10:34:12;;;;;;;8.88;5.47;;;20.80;99.80;;;;;;4974301;28;20073;-39
2023/07/03 10:36:41;;;;;;;10.45;5.38;;;20.80;99.80;;;;;;4973976;28;20035;-40
2023/07/03 10:39:16;;;;;;;8.32;4.90;;;20.90;99.90;;;;;;4973814;28;20034;-39
2023/07/03 10:41:49;;;;;;;10.25;5.25;;;20.80;99.80;;;;;;4972301;28;20046;-37
2023/07/03 10:44:29;;;;;;;10.50;5.28;;;20.80;99.80;;;;;;4974205;28;20466;-39
2023/07/03 10:47:22;;;;;;;8.82;4.80;;;20.80;99.80;;;;;;4973762;28;20031;-39
2023/07/03 10:49:49;;;;;;;9.55;4.78;;;20.80;99.80;;;;;;4989532;28;20499;-38
2023/07/03 10:52:17;;;;;;;8.55;4.72;;;20.80;99.80;;;;;;4973678;28;20102;-39
2023/07/03 10:54:54;;;;;;;8.40;4.78;;;20.80;99.80;;;;;;4973820;28;20031;-39
2023/07/03 10:57:35;;;;;;;7.82;4.72;;;20.80;99.80;;;;;;4973842;28;20054;-39
2023/07/03 11:00:07;;;;;;;6.90;4.30;;;20.90;99.80;;;;;;4974282;28;20033;-39
2023/07/03 11:02:53;;;;;;;7.25;4.60;;;20.80;99.80;;;;;;4973774;28;20040;-39
2023/07/03 11:05:22;;;;;;;8.85;4.47;;;20.80;99.80;;;;;;4973768;28;20500;-38
2023/07/03 11:08:03;;;;;;;6.25;4.38;;;20.90;99.80;;;;;;4973893;28;20038;-40
2023/07/03 11:10:43;;;;;;;10.00;4.28;;;20.80;99.70;;;;;;4974787;28;20023;-38
2023/07/03 11:13:16;;;;;;;8.38;4.80;;;20.80;99.70;;;;;;4973873;28;20027;-36
2023/07/03 11:16:10;;;;;;;6.65;4.38;;;20.90;99.80;;;;;;4973215;28;20054;-40
2023/07/03 11:18:48;;;;;;;8.35;4.40;;;20.80;99.70;;;;;;4973630;28;20023;-39
2023/07/03 11:21:47;;;;;;;7.70;4.40;;;20.80;99.70;;;;;;4973215;28;20042;-37
2023/07/03 11:24:19;;;;;;;6.82;4.13;;;20.90;99.70;;;;;;4974966;28;20442;-39
2023/07/03 11:27:14;;;;;;;8.77;4.55;;;20.90;99.70;;;;;;4973054;28;20121;-39
2023/07/03 11:29:41;;;;;;;6.72;4.32;;;20.90;99.80;;;;;;4972851;28;20166;-39
2023/07/03 11:32:08;;;;;;;8.95;4.28;;;20.80;99.70;;;;;;4972986;28;20046;-39
2023/07/03 11:34:35;;;;;;;7.80;4.05;;;20.90;99.90;;;;;;4972763;28;20031;-38
2023/07/03 11:37:01;;;;;;;8.65;4.20;;;20.90;99.70;;;;;;4972989;28;20338;-38
2023/07/03 11:39:30;;;;;;;7.00;4.05;;;20.90;99.70;;;;;;4972711;28;20394;-39
2023/07/03 11:42:01;;;;;;;8.18;4.38;;;20.90;99.80;;;;;;4973171;28;20042;-40
2023/07/03 11:44:27;;;;;;;6.80;3.85;;;20.90;99.80;;;;;;4973355;28;20066;-39
2023/07/03 11:46:55;;;;;;;7.20;3.70;;;20.90;99.80;;;;;;4972858;28;20071;-39
2023/07/03 11:49:26;;;;;;;5.93;3.90;;;20.90;99.80;;;;;;4973215;28;20533;-38
2023/07/03 11:52:01;;;;;;;6.38;4.10;;;20.90;99.80;;;;;;4972936;28;20038;-40
2023/07/03 11:54:29;;;;;;;8.65;4.00;;;20.90;99.80;;;;;;4972594;28;20026;-38
2023/07/03 11:57:07;;;;;;;7.13;4.18;;;20.90;99.80;;;;;;4973156;28;20027;-38
2023/07/03 11:59:42;;;;;;;8.02;4.30;;;20.90;99.80;;;;;;4973774;28;20030;-38
2023/07/03 12:02:11;;;;;;;5.57;3.92;;;20.90;99.70;;;;;;4972466;28;20049;-40
2023/07/03 12:04:43;;;;;;;8.00;4.00;;;20.90;99.70;;;;;;4972220;28;20050;-39
2023/07/03 12:07:28;;;;;;;7.20;3.75;;;20.90;99.70;;;;;;4973000;28;20023;-39
2023/07/03 12:10:16;;;;;;;5.65;3.92;;;20.90;99.80;;;;;;4964875;28;20031;-39
2023/07/03 12:12:42;;;;;;;7.15;4.18;;;20.90;99.80;;;;;;4972978;28;20027;-39
2023/07/03 12:15:12;;;;;;;5.65;3.50;;;20.90;99.80;;;;;;4973104;28;20027;-40
2023/07/03 12:17:38;;;;;;;6.63;3.97;;;20.90;99.80;;;;;;4972363;28;20117;-40
2023/07/03 12:20:21;;;;;;;6.47;3.90;;;20.90;99.80;;;;;;4972204;28;20049;-39
2023/07/03 12:22:50;;;;;;;6.32;3.67;;;20.90;99.80;;;;;;4973600;28;20041;-37
2023/07/03 12:25:27;;;;;;;5.60;3.75;;;20.90;99.80;;;;;;4973319;28;20030;-38
2023/07/03 12:27:54;;;;;;;8.00;4.00;;;20.90;99.90;;;;;;4972322;28;20033;-40
2023/07/03 12:30:30;;;;;;;6.55;3.80;;;20.90;99.90;;;;;;4972129;28;20023;-39
2023/07/03 12:32:57;;;;;;;5.70;3.15;;;20.90;99.90;;;;;;4972346;28;20030;-40
2023/07/03 12:35:25;;;;;;;5.82;3.47;;;20.90;99.90;;;;;;4972227;28;20063;-39
2023/07/03 12:37:58;;;;;;;6.35;3.67;;;20.90;99.90;;;;;;4987594;28;20031;-38
2023/07/03 12:40:25;;;;;;;5.53;3.25;;;20.90;99.90;;;;;;4972714;28;20034;-37
2023/07/03 12:42:53;;;;;;;4.28;3.20;;;20.90;99.90;;;;;;4972332;28;20022;-38
2023/07/03 12:45:26;;;;;;;7.68;3.80;;;20.90;99.90;;;;;;4972213;28;20495;-38
2023/07/03 12:48:07;;;;;;;6.03;3.55;;;21.00;99.90;;;;;;4972500;28;20441;-39